HE46 weather

El Sharqi Airport
North Sinai Governorate, Egypt

Public forecast

Using degrees Celsius for public forecast. Weather courtesy of forecast.io.

Closest aviation weather report (METAR) to El Sharqi Airport

Report is more than 6 hours old.

Closest report is El Arish International Airport, 77.0 nm (142.5 km) NE. Retrieved 2019/09/02 14:00 UTC (1 month ago):

HEAR 021400Z NI

Closest aviation forecast (TAF) to El Sharqi Airport

Closest forecast is El Arish International Airport, 77.0 nm (142.5 km) NE. Retrieved 2019/10/14 18:59 UTC (3 hours ago):

TAF HEAR 141700Z 1418/1524 28008KT 9999 SCT025